createdAt,value
2019-04-20T00:02:20.646Z,101191.73
2019-04-20T00:06:25.007Z,101200.48
2019-04-20T00:10:30.880Z,101198.09
2019-04-20T00:14:37.486Z,101197.00
2019-04-20T00:18:48.223Z,101198.45
2019-04-20T00:23:03.835Z,101199.13
2019-04-20T00:27:32.815Z,101202.83
2019-04-20T00:31:30.745Z,101196.93
2019-04-20T00:35:21.126Z,101189.72
2019-04-20T00:39:25.905Z,101201.23
2019-04-20T00:43:34.274Z,101196.31
2019-04-20T00:47:48.969Z,101202.81
2019-04-20T00:52:07.499Z,101191.09
2019-04-20T00:55:48.575Z,101194.09
2019-04-20T01:00:15.050Z,101193.98
2019-04-20T01:04:19.823Z,101199.59
2019-04-20T01:08:27.394Z,101192.88
2019-04-20T01:12:35.061Z,101192.41
2019-04-20T01:16:47.367Z,101190.13
2019-04-20T01:20:45.209Z,101191.33
2019-04-20T01:24:51.592Z,101185.14
2019-04-20T01:29:08.956Z,101192.50
2019-04-20T01:33:16.309Z,101181.68
2019-04-20T01:37:24.451Z,101181.68
2019-04-20T01:41:14.043Z,101184.98
2019-04-20T01:45:26.745Z,101186.22
2019-04-20T01:49:28.619Z,101190.89
2019-04-20T01:53:50.495Z,101189.00
2019-04-20T01:58:07.961Z,101191.02
2019-04-20T02:02:05.221Z,101193.05
2019-04-20T02:06:11.111Z,101194.75
2019-04-20T02:10:14.834Z,101198.66
2019-04-20T02:14:26.632Z,101194.62
2019-04-20T02:18:36.166Z,101191.52
2019-04-20T02:22:46.463Z,101191.50
2019-04-20T02:26:36.737Z,101188.69
2019-04-20T02:31:29.988Z,101185.36
2019-04-20T02:35:48.037Z,101187.75
2019-04-20T02:40:01.967Z,101191.03
2019-04-20T02:48:01.547Z,101186.39
2019-04-20T02:52:09.902Z,101190.30
2019-04-20T02:56:12.948Z,101188.97
2019-04-20T03:03:57.654Z,101192.34
2019-04-20T03:08:17.662Z,101186.92
2019-04-20T03:12:29.222Z,101195.05
2019-04-20T03:16:24.226Z,101197.44
2019-04-20T03:20:42.620Z,101200.45
2019-04-20T03:24:59.298Z,101194.65
2019-04-20T03:29:01.571Z,101198.59
2019-04-20T03:33:26.353Z,101197.66
2019-04-20T03:37:25.100Z,101199.81
2019-04-20T03:41:16.233Z,101205.45
2019-04-20T03:45:13.167Z,101204.47
2019-04-20T03:49:38.015Z,101201.41
2019-04-20T03:53:39.725Z,101204.42
2019-04-20T03:57:52.927Z,101202.08
2019-04-20T04:06:05.450Z,101216.71
2019-04-20T04:10:15.974Z,101212.67
2019-04-20T04:14:07.613Z,101213.98
2019-04-20T04:18:21.849Z,101219.17
2019-04-20T04:22:38.044Z,101212.87
2019-04-20T04:26:45.605Z,101218.03
2019-04-20T04:30:49.528Z,101226.74
2019-04-20T04:34:54.212Z,101225.36
2019-04-20T04:39:08.707Z,101235.88
2019-04-20T04:43:10.403Z,101232.27
2019-04-20T04:47:02.646Z,101241.52
2019-04-20T04:51:08.988Z,101235.88
2019-04-20T04:55:24.947Z,101237.19
2019-04-20T04:59:17.067Z,101238.06
2019-04-20T05:03:38.599Z,101246.83
2019-04-20T05:07:43.763Z,101254.72
2019-04-20T05:11:38.479Z,101246.83
2019-04-20T05:15:58.258Z,101246.88
2019-04-20T05:20:10.549Z,101248.03
2019-04-20T05:24:29.165Z,101249.19
2019-04-20T05:28:33.444Z,101243.03
2019-04-20T05:32:35.749Z,101241.27
2019-04-20T05:36:50.606Z,101237.30
2019-04-20T05:41:04.509Z,101244.80
2019-04-20T05:45:10.247Z,101243.05
2019-04-20T05:49:20.694Z,101235.19
2019-04-20T05:53:19.270Z,101240.13
2019-04-20T05:57:31.957Z,101240.59
2019-04-20T06:01:33.365Z,101237.13
2019-04-20T06:05:45.902Z,101238.91
2019-04-20T06:09:46.241Z,101235.37
2019-04-20T06:14:02.372Z,101232.17
2019-04-20T06:18:28.402Z,101235.27
2019-04-20T06:22:45.653Z,101233.01
2019-04-20T06:26:59.488Z,101238.50
2019-04-20T06:30:51.120Z,101238.50
2019-04-20T06:35:09.305Z,101241.81
2019-04-20T06:39:18.703Z,101239.45
2019-04-20T06:43:13.296Z,101243.86
2019-04-20T06:47:25.603Z,101233.51
2019-04-20T06:51:40.348Z,101242.15
2019-04-20T06:55:44.073Z,101238.70
2019-04-20T06:59:43.338Z,101240.30
2019-04-20T07:08:03.008Z,101234.22
2019-04-20T07:11:59.549Z,101233.14
2019-04-20T07:16:13.702Z,101233.87
2019-04-20T07:20:21.283Z,101237.66
2019-04-20T07:24:40.272Z,101235.20
2019-04-20T07:28:55.885Z,101233.66
2019-04-20T07:32:49.634Z,101229.41
2019-04-20T07:37:07.067Z,101224.27
2019-04-20T07:40:56.289Z,101231.03
2019-04-20T07:45:21.669Z,101217.89
2019-04-20T07:49:07.671Z,101227.78
2019-04-20T07:53:08.685Z,101222.98
2019-04-20T07:57:19.451Z,101224.84
2019-04-20T08:01:38.901Z,101215.67
2019-04-20T08:05:36.733Z,101213.97
2019-04-20T08:09:42.258Z,101217.60
2019-04-20T08:13:58.927Z,101216.75
2019-04-20T08:18:04.495Z,101213.71
2019-04-20T08:22:15.562Z,101210.20
2019-04-20T08:26:05.702Z,101216.88
2019-04-20T08:30:25.002Z,101205.85
2019-04-20T08:43:00.468Z,101202.81
2019-04-20T08:47:03.843Z,101195.25
2019-04-20T08:51:02.314Z,101189.91
2019-04-20T08:55:05.387Z,101184.58
2019-04-20T08:58:50.767Z,101184.97
2019-04-20T09:03:02.510Z,101180.09
2019-04-20T09:07:10.179Z,101171.59
2019-04-20T09:11:26.091Z,101167.98
2019-04-20T09:15:14.772Z,101165.19
2019-04-20T09:19:32.726Z,101163.29
2019-04-20T09:23:41.098Z,101159.63
2019-04-20T09:27:43.534Z,101152.05
2019-04-20T09:32:00.267Z,101155.95
2019-04-20T09:36:09.697Z,101151.44
2019-04-20T09:40:31.206Z,101148.66
2019-04-20T09:44:20.071Z,101145.89
2019-04-20T09:48:33.353Z,101145.79
2019-04-20T09:52:49.074Z,101141.36
2019-04-20T09:56:59.272Z,101144.88
2019-04-20T10:00:58.156Z,101141.27
2019-04-20T10:04:51.207Z,101130.53
2019-04-20T10:08:58.535Z,101133.42
2019-04-20T10:13:02.504Z,101117.34
2019-04-20T10:17:07.752Z,101120.39
2019-04-20T10:21:13.716Z,101119.90
2019-04-20T10:25:18.580Z,101113.95
2019-04-20T10:29:23.733Z,101107.94
2019-04-20T10:33:28.038Z,101101.03
2019-04-20T10:37:37.752Z,101101.66
2019-04-20T10:41:49.184Z,101092.20
2019-04-20T10:45:48.928Z,101093.44
2019-04-20T10:49:55.332Z,101091.69
2019-04-20T10:54:00.730Z,101075.58
2019-04-20T10:58:04.923Z,101082.27
2019-04-20T11:02:10.074Z,101074.45
2019-04-20T11:06:16.475Z,101076.50
2019-04-20T11:10:26.767Z,101075.79
2019-04-20T11:14:31.834Z,101074.22
2019-04-20T11:18:35.631Z,101076.33
2019-04-20T11:22:40.273Z,101068.13
2019-04-20T11:26:45.569Z,101067.29
2019-04-20T11:30:52.143Z,101052.07
2019-04-20T11:35:01.032Z,101058.27
2019-04-20T11:39:04.896Z,101058.47
2019-04-20T11:43:09.284Z,101052.41
2019-04-20T11:47:14.728Z,101040.80
2019-04-20T11:51:19.203Z,101038.99
2019-04-20T11:55:26.597Z,101034.54
2019-04-20T11:59:31.135Z,101027.88
2019-04-20T12:03:47.865Z,101022.02
2019-04-20T12:07:56.676Z,101014.55
2019-04-20T12:12:15.617Z,101010.78
2019-04-20T12:16:09.854Z,101003.52
2019-04-20T12:20:14.969Z,101001.38
2019-04-20T12:24:20.446Z,100988.66
2019-04-20T12:28:25.398Z,100989.92
2019-04-20T12:32:36.384Z,100988.66
2019-04-20T12:36:35.720Z,100982.78
2019-04-20T12:40:40.229Z,100982.14
2019-04-20T12:44:45.824Z,100968.77
2019-04-20T12:48:51.451Z,100966.05
2019-04-20T12:52:56.745Z,100960.77
2019-04-20T12:57:02.615Z,100956.20
2019-04-20T13:01:07.024Z,100951.74
2019-04-20T13:05:13.572Z,100950.77
2019-04-20T13:09:20.944Z,100946.70
2019-04-20T13:13:38.684Z,100943.95
2019-04-20T13:17:44.356Z,100933.84
2019-04-20T13:21:49.220Z,100933.98
2019-04-20T13:25:55.009Z,100934.78
2019-04-20T13:29:59.187Z,100931.63
2019-04-20T13:34:03.788Z,100927.10
2019-04-20T13:38:07.988Z,100926.13
2019-04-20T13:42:19.145Z,100917.57
2019-04-20T13:46:18.809Z,100913.58
2019-04-20T13:50:25.952Z,100906.88
2019-04-20T13:54:31.713Z,100902.92
2019-04-20T13:59:10.446Z,100893.07
2019-04-20T14:03:16.605Z,100889.92
2019-04-20T14:07:22.004Z,100877.34
2019-04-20T14:11:27.353Z,100870.99
2019-04-20T14:15:33.175Z,100880.30
2019-04-20T14:19:39.041Z,100874.19
2019-04-20T14:23:45.375Z,100857.34
2019-04-20T14:27:50.811Z,100855.99
2019-04-20T14:31:55.677Z,100848.90
2019-04-20T14:36:01.137Z,100847.56
2019-04-20T14:40:06.295Z,100840.02
2019-04-20T14:44:11.975Z,100839.52
2019-04-20T14:48:16.467Z,100830.16
2019-04-20T14:52:21.761Z,100830.75
2019-04-20T14:56:27.933Z,100828.30
2019-04-20T15:00:54.986Z,100818.62
2019-04-20T15:04:59.635Z,100830.72
2019-04-20T15:09:08.935Z,100822.75
2019-04-20T15:13:15.049Z,100819.81
2019-04-20T15:17:29.801Z,100807.07
2019-04-20T15:21:37.745Z,100807.58
2019-04-20T15:25:44.473Z,100805.73
2019-04-20T15:29:54.019Z,100808.84
2019-04-20T15:33:59.115Z,100797.18
2019-04-20T15:38:05.001Z,100796.81
2019-04-20T15:42:14.975Z,100788.38
2019-04-20T15:46:23.375Z,100785.41
2019-04-20T15:50:28.114Z,100780.52
2019-04-20T15:54:33.710Z,100777.91
2019-04-20T15:58:40.705Z,100775.73
2019-04-20T16:03:01.621Z,100768.21
2019-04-20T16:07:05.797Z,100770.86
2019-04-20T16:11:11.215Z,100765.53
2019-04-20T16:15:17.759Z,100765.09
2019-04-20T16:19:32.864Z,100750.54
2019-04-20T16:23:30.458Z,100755.03
2019-04-20T16:27:38.771Z,100749.67
2019-04-20T16:31:48.427Z,100746.59
2019-04-20T16:35:52.253Z,100740.80
2019-04-20T16:39:56.998Z,100738.67
2019-04-20T16:44:05.064Z,100737.44
2019-04-20T16:48:10.516Z,100732.22
2019-04-20T16:52:15.320Z,100740.33
2019-04-20T16:56:22.413Z,100723.49
2019-04-20T17:00:27.793Z,100715.13
2019-04-20T17:04:33.815Z,100712.09
2019-04-20T17:08:43.238Z,100709.91
2019-04-20T17:12:48.091Z,100714.00
2019-04-20T17:16:53.519Z,100714.23
2019-04-20T17:21:04.474Z,100710.83
2019-04-20T17:25:04.084Z,100706.47
2019-04-20T17:29:23.917Z,100706.07
2019-04-20T17:34:01.385Z,100700.05
2019-04-20T17:37:58.484Z,100710.84
2019-04-20T17:42:22.250Z,100708.30
2019-04-20T17:46:28.732Z,100702.24
2019-04-20T17:50:37.336Z,100705.94
2019-04-20T17:54:49.491Z,100712.78
2019-04-20T17:58:54.232Z,100708.45
2019-04-20T18:03:17.578Z,100704.56
2019-04-20T18:07:32.480Z,100708.73
2019-04-20T18:11:19.569Z,100707.13
2019-04-20T18:15:36.927Z,100702.39
2019-04-20T18:19:34.544Z,100705.67
2019-04-20T18:23:41.178Z,100712.09
2019-04-20T18:27:59.659Z,100714.08
2019-04-20T18:32:09.357Z,100711.59
2019-04-20T18:36:23.420Z,100715.79
2019-04-20T18:40:31.018Z,100711.98
2019-04-20T18:44:34.687Z,100717.50
2019-04-20T18:48:57.111Z,100713.22
2019-04-20T18:52:39.933Z,100706.33
2019-04-20T18:56:48.913Z,100715.94
2019-04-20T19:00:51.949Z,100710.99
2019-04-20T19:04:58.581Z,100716.20
2019-04-20T19:09:02.907Z,100713.33
2019-04-20T19:13:22.385Z,100718.39
2019-04-20T19:17:45.202Z,100719.90
2019-04-20T19:21:40.233Z,100707.59
2019-04-20T19:25:45.766Z,100715.71
2019-04-20T19:29:58.917Z,100717.19
2019-04-20T19:34:15.252Z,100715.52
2019-04-20T19:38:10.370Z,100716.70
2019-04-20T19:42:27.613Z,100710.16
2019-04-20T19:46:49.400Z,100707.06
2019-04-20T19:50:41.342Z,100711.52
2019-04-20T19:54:46.518Z,100709.33
2019-04-20T19:58:45.557Z,100706.70
2019-04-20T20:02:39.600Z,100705.44
2019-04-20T20:06:51.721Z,100705.47
2019-04-20T20:10:50.671Z,100702.41
2019-04-20T20:14:55.384Z,100699.38
2019-04-20T20:19:08.151Z,100697.25
2019-04-20T20:23:05.817Z,100696.88
2019-04-20T20:27:20.710Z,100706.66
2019-04-20T20:31:24.577Z,100704.05
2019-04-20T20:35:26.091Z,100700.95
2019-04-20T20:39:31.672Z,100703.65
2019-04-20T20:43:49.699Z,100706.77
2019-04-20T20:48:01.618Z,100701.92
2019-04-20T20:52:09.786Z,100704.14
2019-04-20T20:56:07.935Z,100699.28
2019-04-20T21:00:07.899Z,100699.75
2019-04-20T21:04:06.941Z,100706.84
2019-04-20T21:08:11.429Z,100711.33
2019-04-20T21:12:17.871Z,100714.02
2019-04-20T21:16:26.677Z,100718.41
2019-04-20T21:20:49.113Z,100717.56
2019-04-20T21:24:37.944Z,100718.01
2019-04-20T21:28:43.997Z,100714.95
2019-04-20T21:32:51.978Z,100712.73
2019-04-20T21:37:01.843Z,100715.83
2019-04-20T21:41:06.557Z,100712.30
2019-04-20T21:45:15.864Z,100714.49
2019-04-20T21:49:33.533Z,100716.25
2019-04-20T21:53:25.071Z,100730.38
2019-04-20T21:57:26.036Z,100728.55
2019-04-20T22:01:37.683Z,100720.11
2019-04-20T22:05:38.146Z,100725.83
2019-04-20T22:09:46.783Z,100720.49
2019-04-20T22:13:50.835Z,100712.13
2019-04-20T22:17:54.749Z,100714.77
2019-04-20T22:22:07.785Z,100727.07
2019-04-20T22:26:18.702Z,100730.09
2019-04-20T22:30:12.267Z,100720.38
2019-04-20T22:34:20.905Z,100731.82
2019-04-20T22:38:29.351Z,100730.95
2019-04-20T22:42:40.112Z,100730.48
2019-04-20T22:46:41.950Z,100734.02
2019-04-20T22:51:08.339Z,100723.84
2019-04-20T22:55:10.068Z,100722.51
2019-04-20T22:59:06.259Z,100721.15
2019-04-20T23:03:04.926Z,100719.39
2019-04-20T23:07:10.603Z,100715.83
2019-04-20T23:11:23.126Z,100715.41
2019-04-20T23:15:23.758Z,100713.19
2019-04-20T23:19:38.182Z,100709.17
2019-04-20T23:23:35.615Z,100708.29
2019-04-20T23:27:42.096Z,100700.33
2019-04-20T23:31:55.332Z,100696.33
2019-04-20T23:35:59.169Z,100693.23
2019-04-20T23:40:02.696Z,100690.57
2019-04-20T23:44:39.487Z,100690.98
2019-04-20T23:49:15.853Z,100685.22
2019-04-20T23:53:34.656Z,100674.63
2019-04-20T23:57:21.873Z,100663.56
